createdAt,value
2022-10-27T00:05:47.662Z,15.83
2022-10-27T00:16:06.980Z,15.78
2022-10-27T00:26:11.911Z,15.67
2022-10-27T00:36:16.518Z,15.51
2022-10-27T00:46:26.729Z,15.39
2022-10-27T00:56:28.262Z,15.31
2022-10-27T01:06:30.109Z,15.26
2022-10-27T01:17:03.706Z,15.32
2022-10-27T01:27:13.066Z,15.31
2022-10-27T01:37:20.835Z,15.26
2022-10-27T01:47:23.974Z,15.05
2022-10-27T01:57:46.999Z,15.03
2022-10-27T02:08:07.840Z,14.99
2022-10-27T02:18:14.562Z,14.90
2022-10-27T02:28:22.362Z,14.81
2022-10-27T02:38:23.873Z,14.55
2022-10-27T02:48:25.327Z,14.58
2022-10-27T02:58:26.778Z,14.89
2022-10-27T03:08:28.285Z,14.70
2022-10-27T03:18:29.752Z,14.43
2022-10-27T03:28:35.299Z,14.49
2022-10-27T03:38:36.751Z,14.69
2022-10-27T03:48:39.432Z,14.84
2022-10-27T03:58:40.976Z,14.99
2022-10-27T04:08:42.502Z,14.82
2022-10-27T04:18:44.144Z,14.80
2022-10-27T04:28:45.618Z,14.52
2022-10-27T04:38:51.272Z,14.60
2022-10-27T04:48:52.787Z,14.65
2022-10-27T04:58:54.342Z,14.60
2022-10-27T05:19:02.170Z,14.82
2022-10-27T05:29:03.866Z,14.86
2022-10-27T05:39:05.374Z,14.73
2022-10-27T05:49:06.800Z,14.67
2022-10-27T05:59:12.501Z,14.70
2022-10-27T06:09:13.930Z,14.61
2022-10-27T06:19:15.413Z,14.66
2022-10-27T06:29:16.874Z,14.74
2022-10-27T06:39:18.382Z,14.86
2022-10-27T06:49:19.939Z,14.94
2022-10-27T06:59:21.899Z,15.01
2022-10-27T07:09:23.349Z,15.25
2022-10-27T07:19:24.800Z,15.88
2022-10-27T07:29:26.373Z,16.26
2022-10-27T07:39:27.818Z,16.61
2022-10-27T07:49:29.383Z,16.94
2022-10-27T07:59:30.880Z,16.78
2022-10-27T08:09:33.493Z,17.60
2022-10-27T08:19:34.989Z,18.16
2022-10-27T08:29:36.433Z,17.74
2022-10-27T08:39:37.893Z,18.64
2022-10-27T08:49:47.679Z,18.27
2022-10-27T08:59:53.174Z,19.17
2022-10-27T09:09:57.731Z,19.80
2022-10-27T09:20:06.558Z,20.05
2022-10-27T09:30:15.039Z,20.84
2022-10-27T09:40:19.656Z,20.77
2022-10-27T09:50:28.119Z,21.20
2022-10-27T10:00:31.001Z,22.84
2022-10-27T10:10:32.569Z,29.59
2022-10-27T10:30:52.708Z,34.15
2022-10-27T10:41:02.619Z,35.11
2022-10-27T10:51:05.602Z,36.01
2022-10-27T11:01:07.865Z,33.85
2022-10-27T11:11:18.908Z,31.91
2022-10-27T11:21:41.474Z,26.67
2022-10-27T11:31:56.986Z,24.12
2022-10-27T11:42:04.292Z,23.36
2022-10-27T11:52:16.271Z,23.48
2022-10-27T12:02:23.418Z,23.66
2022-10-27T12:12:33.678Z,23.93
2022-10-27T12:22:56.028Z,24.32
2022-10-27T12:33:22.264Z,24.55
2022-10-27T12:43:50.218Z,24.73
2022-10-27T12:53:58.269Z,25.64
2022-10-27T13:04:29.072Z,25.66
2022-10-27T13:15:08.229Z,25.72
2022-10-27T13:26:02.205Z,25.69
2022-10-27T13:36:16.974Z,25.66
2022-10-27T13:46:18.454Z,25.37
2022-10-27T13:56:39.827Z,24.83
2022-10-27T14:06:43.941Z,24.52
2022-10-27T14:16:45.833Z,23.99
2022-10-27T14:26:47.401Z,23.57
2022-10-27T14:36:49.991Z,23.47
2022-10-27T14:46:53.199Z,23.24
2022-10-27T14:56:54.857Z,22.89
2022-10-27T15:07:02.683Z,22.76
2022-10-27T15:17:05.034Z,22.60
2022-10-27T15:27:11.748Z,22.32
2022-10-27T15:37:27.580Z,22.09
2022-10-27T15:47:39.902Z,21.72
2022-10-27T15:57:42.293Z,21.33
2022-10-27T16:07:43.999Z,21.04
2022-10-27T16:17:56.975Z,20.71
2022-10-27T16:27:59.726Z,20.45
2022-10-27T16:38:01.553Z,20.16
2022-10-27T16:48:03.128Z,19.94
2022-10-27T16:58:04.616Z,19.73
2022-10-27T17:08:06.164Z,19.50
2022-10-27T17:18:07.840Z,19.35
2022-10-27T17:28:09.256Z,19.25
2022-10-27T17:38:10.707Z,19.09
2022-10-27T17:48:12.273Z,18.86
2022-10-27T17:58:13.748Z,18.69
2022-10-27T18:08:16.499Z,18.61
2022-10-27T18:18:17.983Z,18.48
2022-10-27T18:28:19.667Z,18.39
2022-10-27T18:38:21.188Z,18.26
2022-10-27T18:48:22.723Z,18.15
2022-10-27T18:58:24.254Z,17.96
2022-10-27T19:08:25.980Z,17.83
2022-10-27T19:18:28.689Z,17.83
2022-10-27T19:28:32.166Z,17.68
2022-10-27T19:38:35.076Z,17.57
2022-10-27T19:48:36.649Z,17.51
2022-10-27T19:58:38.235Z,17.48
2022-10-27T20:08:41.548Z,17.32
2022-10-27T20:18:43.111Z,17.11
2022-10-27T20:28:44.549Z,17.07
2022-10-27T20:38:45.993Z,16.94
2022-10-27T20:48:51.576Z,17.06
2022-10-27T20:58:53.091Z,16.96
2022-10-27T21:08:56.061Z,16.86
2022-10-27T21:18:59.736Z,16.76
2022-10-27T21:29:01.627Z,16.67
2022-10-27T21:39:08.100Z,16.53
2022-10-27T21:49:10.514Z,16.42
2022-10-27T21:59:12.140Z,16.35
2022-10-27T22:09:13.652Z,16.21
2022-10-27T22:19:15.187Z,16.11
2022-10-27T22:29:16.637Z,16.06
2022-10-27T22:39:18.080Z,16.00
2022-10-27T22:49:19.589Z,15.90
2022-10-27T22:59:21.038Z,15.83
2022-10-27T23:09:23.498Z,15.74
2022-10-27T23:19:24.985Z,15.63
2022-10-27T23:29:26.481Z,15.55
2022-10-27T23:39:27.966Z,15.53
2022-10-27T23:49:29.566Z,15.48
2022-10-27T23:59:30.997Z,15.43
